createdAt,value
2022-10-02T00:02:41.753Z,12.30
2022-10-02T00:05:47.394Z,12.30
2022-10-02T00:08:54.658Z,12.30
2022-10-02T00:11:58.997Z,12.30
2022-10-02T00:15:15.742Z,12.30
2022-10-02T00:18:23.221Z,12.30
2022-10-02T00:21:44.178Z,12.30
2022-10-02T00:24:52.195Z,12.30
2022-10-02T00:28:05.946Z,12.30
2022-10-02T00:31:33.781Z,12.40
2022-10-02T00:35:06.362Z,12.30
2022-10-02T00:38:42.153Z,12.40
2022-10-02T00:42:21.694Z,12.30
2022-10-02T00:45:54.559Z,12.30
2022-10-02T00:49:09.029Z,12.30
2022-10-02T00:52:30.733Z,12.40
2022-10-02T00:55:45.465Z,12.40
2022-10-02T00:59:18.855Z,12.40
2022-10-02T01:02:26.748Z,12.40
2022-10-02T01:05:28.793Z,12.40
2022-10-02T01:08:31.126Z,12.40
2022-10-02T01:11:33.758Z,12.40
2022-10-02T01:14:40.107Z,12.50
2022-10-02T01:17:42.579Z,12.50
2022-10-02T01:20:47.405Z,12.40
2022-10-02T01:24:02.714Z,12.50
2022-10-02T01:27:04.393Z,12.50
2022-10-02T01:30:09.845Z,12.60
2022-10-02T01:33:13.233Z,12.60
2022-10-02T01:36:16.193Z,12.60
2022-10-02T01:39:18.254Z,12.60
2022-10-02T01:42:21.552Z,12.60
2022-10-02T01:45:49.020Z,12.70
2022-10-02T01:49:08.989Z,12.70
2022-10-02T01:52:34.773Z,12.70
2022-10-02T01:56:01.113Z,12.70
2022-10-02T01:59:58.009Z,12.70
2022-10-02T02:03:25.527Z,12.70
2022-10-02T02:06:38.361Z,12.70
2022-10-02T02:09:58.712Z,12.70
2022-10-02T02:13:06.125Z,12.70
2022-10-02T02:16:20.543Z,12.60
2022-10-02T02:19:28.815Z,12.70
2022-10-02T02:22:38.748Z,12.70
2022-10-02T02:25:45.189Z,12.70
2022-10-02T02:28:52.524Z,12.70
2022-10-02T02:31:58.204Z,12.70
2022-10-02T02:35:11.488Z,12.80
2022-10-02T02:38:19.683Z,12.80
2022-10-02T02:41:27.787Z,12.80
2022-10-02T02:44:41.604Z,12.80
2022-10-02T02:48:00.848Z,12.70
2022-10-02T02:51:27.933Z,12.70
2022-10-02T02:54:38.697Z,12.70
2022-10-02T02:57:59.698Z,12.70
2022-10-02T03:01:01.450Z,12.70
2022-10-02T03:04:03.923Z,12.70
2022-10-02T03:07:08.666Z,12.70
2022-10-02T03:10:18.611Z,12.70
2022-10-02T03:13:50.268Z,12.70
2022-10-02T03:17:22.268Z,12.70
2022-10-02T03:20:54.774Z,12.80
2022-10-02T03:24:08.966Z,12.80
2022-10-02T03:27:20.681Z,12.90
2022-10-02T03:30:24.154Z,13.00
2022-10-02T03:33:27.549Z,13.00
2022-10-02T03:36:29.880Z,13.00
2022-10-02T03:39:31.563Z,13.00
2022-10-02T03:42:35.682Z,13.00
2022-10-02T03:45:51.066Z,13.00
2022-10-02T03:48:56.333Z,13.00
2022-10-02T03:51:57.998Z,13.00
2022-10-02T03:55:04.384Z,13.00
2022-10-02T03:58:16.481Z,13.00
2022-10-02T04:01:35.451Z,13.00
2022-10-02T04:04:46.216Z,12.90
2022-10-02T04:07:59.243Z,12.90
2022-10-02T04:11:11.376Z,12.90
2022-10-02T04:14:25.752Z,12.90
2022-10-02T04:17:46.792Z,13.00
2022-10-02T04:20:55.659Z,13.00
2022-10-02T04:24:08.919Z,13.00
2022-10-02T04:27:34.764Z,13.00
2022-10-02T04:30:36.491Z,13.00
2022-10-02T04:33:38.642Z,13.00
2022-10-02T04:37:01.421Z,13.00
2022-10-02T04:40:27.762Z,13.00
2022-10-02T04:43:55.714Z,13.00
2022-10-02T04:47:20.367Z,13.00
2022-10-02T04:50:55.954Z,12.90
2022-10-02T04:54:12.518Z,12.90
2022-10-02T04:57:19.967Z,12.90
2022-10-02T05:00:26.809Z,12.90
2022-10-02T05:03:52.511Z,12.90
2022-10-02T05:07:01.082Z,12.80
2022-10-02T05:10:32.412Z,12.90
2022-10-02T05:13:55.984Z,12.80
2022-10-02T05:17:42.687Z,12.80
2022-10-02T05:21:18.821Z,12.80
2022-10-02T05:24:34.864Z,12.80
2022-10-02T05:28:10.222Z,12.80
2022-10-02T05:31:48.215Z,12.80
2022-10-02T05:35:07.888Z,12.80
2022-10-02T05:38:22.036Z,12.80
2022-10-02T05:41:30.652Z,12.80
2022-10-02T05:44:45.467Z,12.90
2022-10-02T05:47:48.354Z,12.90
2022-10-02T05:50:55.853Z,12.90
2022-10-02T05:54:03.173Z,12.90
2022-10-02T05:57:19.009Z,12.90
2022-10-02T06:00:39.006Z,12.90
2022-10-02T06:03:51.257Z,12.90
2022-10-02T06:06:57.341Z,12.90
2022-10-02T06:10:16.427Z,12.90
2022-10-02T06:13:29.913Z,12.90
2022-10-02T06:16:37.681Z,12.90
2022-10-02T06:20:04.651Z,12.90
2022-10-02T06:23:22.310Z,12.90
2022-10-02T06:26:41.299Z,12.90
2022-10-02T06:29:49.844Z,12.90
2022-10-02T06:33:06.543Z,12.90
2022-10-02T06:36:18.010Z,12.90
2022-10-02T06:39:29.143Z,13.00
2022-10-02T06:42:49.371Z,13.10
2022-10-02T06:46:21.121Z,13.10
2022-10-02T06:49:51.530Z,13.20
2022-10-02T06:53:00.291Z,13.30
2022-10-02T06:56:37.463Z,13.30
2022-10-02T07:00:00.028Z,13.30
2022-10-02T07:03:16.616Z,13.30
2022-10-02T07:06:34.905Z,13.40
2022-10-02T07:10:12.003Z,13.60
2022-10-02T07:13:13.599Z,13.60
2022-10-02T07:16:38.815Z,13.60
2022-10-02T07:20:11.545Z,13.60
2022-10-02T07:23:48.697Z,13.70
2022-10-02T07:27:02.964Z,13.70
2022-10-02T07:30:16.215Z,13.70
2022-10-02T07:33:36.456Z,13.80
2022-10-02T07:36:59.188Z,13.80
2022-10-02T07:40:19.735Z,13.90
2022-10-02T07:43:33.317Z,14.10
2022-10-02T07:46:46.502Z,14.10
2022-10-02T07:50:00.252Z,14.10
2022-10-02T07:53:09.316Z,14.10
2022-10-02T07:56:19.880Z,14.10
2022-10-02T07:59:22.182Z,14.10
2022-10-02T08:02:56.741Z,14.20
2022-10-02T08:05:59.424Z,14.30
2022-10-02T08:09:15.984Z,14.40
2022-10-02T08:12:20.461Z,14.40
2022-10-02T08:15:24.558Z,14.40
2022-10-02T08:18:40.361Z,14.40
2022-10-02T08:21:49.401Z,14.40
2022-10-02T08:24:57.178Z,14.50
2022-10-02T08:28:04.565Z,14.50
2022-10-02T08:31:13.470Z,14.50
2022-10-02T08:34:24.080Z,14.50
2022-10-02T08:37:43.710Z,14.50
2022-10-02T08:41:17.273Z,14.50
2022-10-02T08:44:36.299Z,14.50
2022-10-02T08:47:41.769Z,14.50
2022-10-02T08:51:13.763Z,14.50
2022-10-02T08:54:52.971Z,14.40
2022-10-02T08:58:13.894Z,14.40
2022-10-02T09:01:50.545Z,14.50
2022-10-02T09:05:39.503Z,14.50
2022-10-02T09:09:10.449Z,14.60
2022-10-02T09:12:31.949Z,14.70
2022-10-02T09:16:08.462Z,14.80
2022-10-02T09:19:40.446Z,14.90
2022-10-02T09:23:23.542Z,15.00
2022-10-02T09:26:48.842Z,15.20
2022-10-02T09:30:28.376Z,15.30
2022-10-02T09:34:07.130Z,15.30
2022-10-02T09:37:40.256Z,15.10
2022-10-02T09:40:48.481Z,15.20
2022-10-02T09:44:19.474Z,15.20
2022-10-02T09:47:49.287Z,15.30
2022-10-02T09:51:29.914Z,15.30
2022-10-02T09:54:52.747Z,15.30
2022-10-02T09:58:25.445Z,15.40
2022-10-02T10:01:30.161Z,15.60
2022-10-02T10:05:06.137Z,15.60
2022-10-02T10:08:11.053Z,15.60
2022-10-02T10:11:30.949Z,16.00
2022-10-02T10:14:57.466Z,15.80
2022-10-02T10:18:11.014Z,15.80
2022-10-02T10:21:15.491Z,15.90
2022-10-02T10:24:39.693Z,16.00
2022-10-02T10:28:06.199Z,16.30
2022-10-02T10:31:43.037Z,16.40
2022-10-02T10:35:09.057Z,16.30
2022-10-02T10:38:33.231Z,16.40
2022-10-02T10:41:57.341Z,16.40
2022-10-02T10:45:25.805Z,16.70
2022-10-02T10:48:49.831Z,16.60
2022-10-02T10:52:29.823Z,16.70
2022-10-02T10:55:40.788Z,16.70
2022-10-02T10:58:42.394Z,16.60
2022-10-02T11:01:50.294Z,16.60
2022-10-02T11:05:29.884Z,16.60
2022-10-02T11:09:07.531Z,16.40
2022-10-02T11:12:12.715Z,16.30
2022-10-02T11:15:49.316Z,16.30
2022-10-02T11:19:19.198Z,16.40
2022-10-02T11:22:50.405Z,16.60
2022-10-02T11:26:09.760Z,16.60
2022-10-02T11:29:20.257Z,16.70
2022-10-02T11:32:27.884Z,16.80
2022-10-02T11:35:53.433Z,16.70
2022-10-02T11:39:05.836Z,16.60
2022-10-02T11:42:38.233Z,16.50
2022-10-02T11:46:00.160Z,16.60
2022-10-02T11:49:45.548Z,16.60
2022-10-02T11:53:05.844Z,16.60
2022-10-02T11:56:26.601Z,16.70
2022-10-02T11:59:50.137Z,16.70
2022-10-02T12:03:21.941Z,16.70
2022-10-02T12:06:29.889Z,16.60
2022-10-02T12:10:10.446Z,16.50
2022-10-02T12:13:50.732Z,16.60
2022-10-02T12:17:12.436Z,16.70
2022-10-02T12:21:05.064Z,16.60
2022-10-02T12:24:43.371Z,16.60
2022-10-02T12:28:03.714Z,16.60
2022-10-02T12:31:51.415Z,16.70
2022-10-02T12:35:05.460Z,16.70
2022-10-02T12:38:22.892Z,16.70
2022-10-02T12:41:52.763Z,16.60
2022-10-02T12:45:11.888Z,16.60
2022-10-02T12:48:30.729Z,16.80
2022-10-02T12:51:56.836Z,16.90
2022-10-02T12:55:12.472Z,16.80
2022-10-02T12:58:40.855Z,17.00
2022-10-02T13:02:07.170Z,17.20
2022-10-02T13:05:44.602Z,17.10
2022-10-02T13:09:08.484Z,17.00
2022-10-02T13:12:35.693Z,16.90
2022-10-02T13:16:12.628Z,16.90
2022-10-02T13:19:18.605Z,17.00
2022-10-02T13:22:34.270Z,16.90
2022-10-02T13:26:19.157Z,16.80
2022-10-02T13:29:42.831Z,17.20
2022-10-02T13:33:09.292Z,17.40
2022-10-02T13:36:44.176Z,17.30
2022-10-02T13:40:19.789Z,17.30
2022-10-02T13:44:18.339Z,17.20
2022-10-02T13:47:36.708Z,17.30
2022-10-02T13:50:43.207Z,18.90
2022-10-02T13:54:02.799Z,18.60
2022-10-02T13:57:26.053Z,19.20
2022-10-02T14:00:37.213Z,19.50
2022-10-02T14:03:49.971Z,18.60
2022-10-02T14:06:58.639Z,18.10
2022-10-02T14:10:06.173Z,17.70
2022-10-02T14:13:33.627Z,17.70
2022-10-02T14:16:47.115Z,18.10
2022-10-02T14:20:17.425Z,18.10
2022-10-02T14:23:27.992Z,18.50
2022-10-02T14:27:05.631Z,18.40
2022-10-02T14:30:19.985Z,18.40
2022-10-02T14:33:33.593Z,18.50
2022-10-02T14:37:16.655Z,18.60
2022-10-02T14:40:19.994Z,19.80
2022-10-02T14:43:34.175Z,22.90
2022-10-02T14:46:50.947Z,24.00
2022-10-02T14:50:16.985Z,22.20
2022-10-02T14:53:40.423Z,20.00
2022-10-02T14:56:53.437Z,20.40
2022-10-02T15:00:24.623Z,19.70
2022-10-02T15:03:40.863Z,19.50
2022-10-02T15:07:12.055Z,21.00
2022-10-02T15:10:25.010Z,20.70
2022-10-02T15:13:58.231Z,19.70
2022-10-02T15:17:24.905Z,19.40
2022-10-02T15:20:47.081Z,19.10
2022-10-02T15:23:50.421Z,18.40
2022-10-02T15:27:19.241Z,18.00
2022-10-02T15:30:26.744Z,17.70
2022-10-02T15:33:36.872Z,17.60
2022-10-02T15:37:13.729Z,17.40
2022-10-02T15:40:38.410Z,17.30
2022-10-02T15:44:07.741Z,17.40
2022-10-02T15:47:21.420Z,17.40
2022-10-02T15:50:29.825Z,17.30
2022-10-02T15:53:42.387Z,17.10
2022-10-02T15:56:53.029Z,17.00
2022-10-02T16:00:11.692Z,16.90
2022-10-02T16:03:22.419Z,16.80
2022-10-02T16:06:33.473Z,16.70
2022-10-02T16:09:49.813Z,16.70
2022-10-02T16:13:16.001Z,16.60
2022-10-02T16:16:37.037Z,16.50
2022-10-02T16:20:02.422Z,16.40
2022-10-02T16:23:12.557Z,16.40
2022-10-02T16:26:23.153Z,16.20
2022-10-02T16:29:59.623Z,16.20
2022-10-02T16:33:32.490Z,16.20
2022-10-02T16:36:42.974Z,16.00
2022-10-02T16:40:04.358Z,16.00
2022-10-02T16:43:43.477Z,16.00
2022-10-02T16:46:51.952Z,15.90
2022-10-02T16:50:05.159Z,15.80
2022-10-02T16:53:25.999Z,15.80
2022-10-02T16:56:47.019Z,15.60
2022-10-02T17:00:29.261Z,15.60
2022-10-02T17:03:48.513Z,15.40
2022-10-02T17:07:02.793Z,15.40
2022-10-02T17:10:32.043Z,15.20
2022-10-02T17:14:11.691Z,15.10
2022-10-02T17:17:32.407Z,15.00
2022-10-02T17:20:43.264Z,14.80
2022-10-02T17:24:03.730Z,14.60
2022-10-02T17:27:11.200Z,14.70
2022-10-02T17:30:23.894Z,14.70
2022-10-02T17:33:27.708Z,14.50
2022-10-02T17:36:36.189Z,14.50
2022-10-02T17:40:03.073Z,14.30
2022-10-02T17:43:27.680Z,14.40
2022-10-02T17:46:49.581Z,14.40
2022-10-02T17:50:02.047Z,14.30
2022-10-02T17:53:46.763Z,14.20
2022-10-02T17:57:01.307Z,14.10
2022-10-02T18:00:11.666Z,14.00
2022-10-02T18:03:26.347Z,14.00
2022-10-02T18:06:47.432Z,14.10
2022-10-02T18:10:08.833Z,14.10
2022-10-02T18:13:34.164Z,14.10
2022-10-02T18:17:00.677Z,14.10
2022-10-02T18:20:11.000Z,14.00
2022-10-02T18:23:40.941Z,13.80
2022-10-02T18:27:22.692Z,13.80
2022-10-02T18:30:40.015Z,13.80
2022-10-02T18:34:26.468Z,13.80
2022-10-02T18:37:57.255Z,13.80
2022-10-02T18:41:23.082Z,13.90
2022-10-02T18:44:46.043Z,13.90
2022-10-02T18:48:03.299Z,13.80
2022-10-02T18:51:10.813Z,13.80
2022-10-02T18:54:35.685Z,13.80
2022-10-02T18:58:21.329Z,13.70
2022-10-02T19:01:47.472Z,13.60
2022-10-02T19:05:32.173Z,13.50
2022-10-02T19:08:55.677Z,13.50
2022-10-02T19:12:28.450Z,13.40
2022-10-02T19:15:32.500Z,13.50
2022-10-02T19:18:34.270Z,13.40
2022-10-02T19:21:37.395Z,13.30
2022-10-02T19:24:41.820Z,13.30
2022-10-02T19:27:49.748Z,13.40
2022-10-02T19:30:55.761Z,13.30
2022-10-02T19:34:04.706Z,13.30
2022-10-02T19:37:07.788Z,13.40
2022-10-02T19:40:26.111Z,13.30
2022-10-02T19:43:32.396Z,13.20
2022-10-02T19:46:41.387Z,13.20
2022-10-02T19:49:46.668Z,13.10
2022-10-02T19:52:58.731Z,13.10
2022-10-02T19:56:04.328Z,13.10
2022-10-02T19:59:18.492Z,13.00
2022-10-02T20:02:25.788Z,13.00
2022-10-02T20:05:31.469Z,12.90
2022-10-02T20:08:42.372Z,12.80
2022-10-02T20:11:51.715Z,12.80
2022-10-02T20:15:41.548Z,12.80
2022-10-02T20:18:43.268Z,12.90
2022-10-02T20:21:58.044Z,12.60
2022-10-02T20:25:21.914Z,12.60
2022-10-02T20:28:41.503Z,12.60
2022-10-02T20:32:02.776Z,12.70
2022-10-02T20:35:16.524Z,12.60
2022-10-02T20:38:41.860Z,12.60
2022-10-02T20:42:09.395Z,12.40
2022-10-02T20:45:13.136Z,12.40
2022-10-02T20:48:55.683Z,12.30
2022-10-02T20:52:28.361Z,12.30
2022-10-02T20:56:06.154Z,12.50
2022-10-02T20:59:45.083Z,12.40
2022-10-02T21:02:52.657Z,12.50
2022-10-02T21:06:27.634Z,12.40
2022-10-02T21:10:05.254Z,12.50
2022-10-02T21:13:36.551Z,12.40
2022-10-02T21:17:05.506Z,12.50
2022-10-02T21:20:51.187Z,12.40
2022-10-02T21:24:10.639Z,12.40
2022-10-02T21:27:18.041Z,12.40
2022-10-02T21:30:20.654Z,12.40
2022-10-02T21:33:30.085Z,12.50
2022-10-02T21:36:41.561Z,12.30
2022-10-02T21:40:19.804Z,12.40
2022-10-02T21:44:01.719Z,12.20
2022-10-02T21:47:06.425Z,12.20
2022-10-02T21:50:11.709Z,12.20
2022-10-02T21:53:40.771Z,12.30
2022-10-02T21:57:26.878Z,12.30
2022-10-02T22:00:31.386Z,12.20
2022-10-02T22:04:03.449Z,12.20
2022-10-02T22:07:29.835Z,12.20
2022-10-02T22:10:34.519Z,11.90
2022-10-02T22:13:43.611Z,12.00
2022-10-02T22:17:17.318Z,11.90
2022-10-02T22:20:43.100Z,11.90
2022-10-02T22:23:58.581Z,11.90
2022-10-02T22:27:21.699Z,11.70
2022-10-02T22:30:26.509Z,11.60
2022-10-02T22:33:31.741Z,11.70
2022-10-02T22:36:52.243Z,11.70
2022-10-02T22:40:04.156Z,11.90
2022-10-02T22:43:08.295Z,11.90
2022-10-02T22:46:28.863Z,11.90
2022-10-02T22:49:45.775Z,12.00
2022-10-02T22:53:15.959Z,12.00
2022-10-02T22:56:46.063Z,11.90
2022-10-02T22:59:57.089Z,11.90
2022-10-02T23:03:29.471Z,11.70
2022-10-02T23:06:45.672Z,11.70
2022-10-02T23:10:10.610Z,11.60
2022-10-02T23:13:27.623Z,11.50
2022-10-02T23:16:35.134Z,11.40
2022-10-02T23:19:52.649Z,11.30
2022-10-02T23:23:12.568Z,11.30
2022-10-02T23:26:29.569Z,11.30
2022-10-02T23:29:50.723Z,11.40
2022-10-02T23:32:58.476Z,11.40
2022-10-02T23:36:19.058Z,11.20
2022-10-02T23:39:35.153Z,11.00
2022-10-02T23:42:45.581Z,10.80
2022-10-02T23:46:02.522Z,10.70
2022-10-02T23:49:04.571Z,10.70
2022-10-02T23:52:43.856Z,10.60
2022-10-02T23:56:17.646Z,10.50
2022-10-02T23:59:45.467Z,10.40
